Time;durP1;ratioP1;P1;durP2;ratioP2;P2;SDS_P1;SDS_P2;PMS_P1;PMS_P2;Temp;Humidity;BMP_temperature;BMP_pressure;BME280_temperature;BME280_humidity;BME280_pressure;Samples;Min_cycle;Max_cycle;Signal;HPM_P1;HPM_P2
2024/04/21 00:00:57;;;;;;;3.25;0.43;;;5.00;99.90;;;;;;5367619;26;20484;-80
2024/04/21 00:03:24;;;;;;;5.38;0.50;;;4.90;99.90;;;;;;5436002;26;20017;-78
2024/04/21 00:05:50;;;;;;;3.20;0.32;;;4.90;99.90;;;;;;5430352;26;20056;-78
2024/04/21 00:08:16;;;;;;;3.70;0.65;;;4.80;99.90;;;;;;5358944;26;20002;-78
2024/04/21 00:10:43;;;;;;;9.65;0.85;;;4.80;99.90;;;;;;5359103;26;20011;-79
2024/04/21 00:13:09;;;;;;;4.45;1.10;;;4.70;99.90;;;;;;5420249;26;20013;-78
2024/04/21 00:15:36;;;;;;;5.57;0.75;;;4.70;99.90;;;;;;5389779;26;20099;-78
2024/04/21 00:18:02;;;;;;;4.95;0.60;;;4.70;99.90;;;;;;5386294;26;20014;-79
2024/04/21 00:20:28;;;;;;;4.97;0.63;;;4.70;99.90;;;;;;5458780;25;19998;-79
2024/04/21 00:22:55;;;;;;;3.55;0.40;;;4.70;99.90;;;;;;5434037;26;20014;-80
2024/04/21 00:25:21;;;;;;;4.35;0.50;;;4.70;99.90;;;;;;5393907;26;20006;-81
2024/04/21 00:27:47;;;;;;;1.63;0.40;;;4.80;99.90;;;;;;5416405;26;20002;-81
2024/04/21 00:30:14;;;;;;;5.60;0.88;;;4.80;99.90;;;;;;5443812;25;20007;-82
2024/04/21 00:32:40;;;;;;;7.10;0.82;;;4.80;99.90;;;;;;5417020;26;19998;-79
2024/04/21 00:35:07;;;;;;;7.50;0.70;;;4.70;99.90;;;;;;5384728;26;21513;-80
2024/04/21 00:37:33;;;;;;;6.88;0.80;;;4.70;99.90;;;;;;5428988;26;20998;-78
2024/04/21 00:40:00;;;;;;;6.22;0.43;;;4.50;99.90;;;;;;5430582;26;20348;-79
2024/04/21 00:42:26;;;;;;;6.70;1.02;;;4.40;99.90;;;;;;5421978;26;20014;-78
2024/04/21 00:44:53;;;;;;;6.00;0.68;;;4.30;99.90;;;;;;5386756;26;20451;-79
2024/04/21 00:47:19;;;;;;;5.45;0.50;;;4.20;99.90;;;;;;5416099;26;20651;-77
2024/04/21 00:49:45;;;;;;;4.15;0.40;;;4.20;99.90;;;;;;5359141;26;20029;-77
2024/04/21 00:52:12;;;;;;;4.82;1.00;;;4.10;99.90;;;;;;5419071;26;20010;-77
2024/04/21 00:54:39;;;;;;;3.80;0.40;;;4.00;99.90;;;;;;5431852;26;19999;-78
2024/04/21 00:57:06;;;;;;;7.50;0.90;;;4.00;99.90;;;;;;5432530;26;20010;-77
2024/04/21 00:59:34;;;;;;;5.15;0.55;;;3.90;99.90;;;;;;5386403;26;20006;-77
2024/04/21 01:02:01;;;;;;;4.82;0.50;;;3.90;99.90;;;;;;5383402;26;20756;-79
2024/04/21 01:04:29;;;;;;;4.45;0.40;;;3.80;99.90;;;;;;5413896;26;20014;-78
2024/04/21 01:06:55;;;;;;;1.75;0.50;;;3.80;99.90;;;;;;5414598;26;20010;-78
2024/04/21 01:09:22;;;;;;;4.10;0.50;;;3.80;99.90;;;;;;5385296;26;20006;-76
2024/04/21 01:11:49;;;;;;;10.65;0.90;;;3.80;99.90;;;;;;5423751;26;20466;-78
2024/04/21 01:14:16;;;;;;;10.30;0.75;;;3.70;99.90;;;;;;5403651;26;19998;-77
2024/04/21 01:16:43;;;;;;;3.92;0.57;;;3.60;99.90;;;;;;5394401;26;19998;-78
2024/04/21 01:19:10;;;;;;;7.60;0.90;;;3.60;99.90;;;;;;5354943;26;20013;-79
2024/04/21 01:21:37;;;;;;;6.30;0.32;;;3.50;99.90;;;;;;5374340;26;1042300;-79
2024/04/21 01:24:04;;;;;;;6.13;0.50;;;3.40;99.90;;;;;;5357021;26;20928;-78
2024/04/21 01:26:30;;;;;;;4.45;0.57;;;3.40;99.90;;;;;;5387697;26;20002;-78
2024/04/21 01:28:56;;;;;;;3.53;0.50;;;3.40;99.90;;;;;;5393316;26;20017;-78
2024/04/21 01:31:24;;;;;;;6.50;0.50;;;3.30;99.90;;;;;;5433160;26;20673;-79
2024/04/21 01:33:51;;;;;;;5.47;0.50;;;3.30;99.90;;;;;;5396190;26;20002;-78
2024/04/21 01:36:17;;;;;;;10.23;0.60;;;3.20;99.90;;;;;;5415651;26;20002;-77
2024/04/21 01:38:43;;;;;;;4.57;0.40;;;3.20;99.90;;;;;;5411430;26;20002;-79
2024/04/21 01:41:10;;;;;;;3.25;0.40;;;3.20;99.90;;;;;;5386868;26;20011;-77
2024/04/21 01:43:36;;;;;;;3.10;0.40;;;3.20;99.90;;;;;;5358397;26;20733;-78
2024/04/21 01:46:03;;;;;;;5.43;0.77;;;3.10;99.90;;;;;;5441322;25;20333;-78
2024/04/21 01:48:29;;;;;;;2.60;0.40;;;3.10;99.90;;;;;;5405825;26;20337;-79
2024/04/21 01:50:55;;;;;;;4.45;0.47;;;3.10;99.90;;;;;;5399654;26;20009;-77
2024/04/21 01:53:22;;;;;;;5.22;0.60;;;3.10;99.90;;;;;;5361414;26;20002;-78
2024/04/21 01:55:48;;;;;;;7.85;1.40;;;3.00;99.90;;;;;;5416941;26;20013;-78
2024/04/21 01:58:15;;;;;;;4.90;0.50;;;3.00;99.90;;;;;;5412455;26;20002;-78
2024/04/21 02:00:41;;;;;;;4.07;0.57;;;3.00;99.90;;;;;;5359720;26;20010;-79
2024/04/21 02:03:08;;;;;;;5.23;0.57;;;3.00;99.90;;;;;;5383301;26;20006;-78
2024/04/21 02:05:34;;;;;;;7.60;0.50;;;3.00;99.90;;;;;;5390505;26;20018;-79
2024/04/21 02:08:00;;;;;;;5.30;0.50;;;3.00;99.90;;;;;;5399031;26;19998;-77
2024/04/21 02:10:27;;;;;;;4.72;0.50;;;2.90;99.90;;;;;;5400302;26;20021;-79
2024/04/21 02:12:53;;;;;;;3.60;0.38;;;3.00;99.90;;;;;;5363865;26;20002;-80
2024/04/21 02:15:20;;;;;;;7.13;1.03;;;3.00;99.90;;;;;;5386668;26;20010;-80
2024/04/21 02:17:46;;;;;;;5.72;0.75;;;3.10;99.90;;;;;;5354229;26;20017;-80
2024/04/21 02:20:13;;;;;;;2.50;0.20;;;3.20;99.90;;;;;;5418242;26;20364;-80
2024/04/21 02:22:40;;;;;;;5.50;0.70;;;3.20;99.90;;;;;;5419026;26;19998;-80
2024/04/21 02:25:07;;;;;;;6.22;0.50;;;3.20;99.90;;;;;;5399342;26;21851;-78
2024/04/21 02:27:33;;;;;;;3.58;0.40;;;3.30;99.90;;;;;;5399511;26;20010;-80
2024/04/21 02:29:59;;;;;;;4.53;0.55;;;3.30;99.90;;;;;;5428757;26;20437;-78
2024/04/21 02:32:26;;;;;;;6.07;0.40;;;3.40;99.90;;;;;;5418175;26;20012;-78
2024/04/21 02:34:53;;;;;;;5.00;0.80;;;3.40;99.90;;;;;;5419081;26;20357;-78
2024/04/21 02:37:19;;;;;;;4.63;0.50;;;3.40;99.90;;;;;;5449780;25;20002;-78
2024/04/21 02:39:45;;;;;;;5.30;0.40;;;3.50;99.90;;;;;;5395672;26;20008;-78
2024/04/21 02:42:12;;;;;;;4.85;0.55;;;3.60;99.90;;;;;;5397070;26;20006;-79
2024/04/21 02:44:39;;;;;;;8.70;0.40;;;3.70;99.90;;;;;;5436620;26;19998;-80
2024/04/21 02:47:05;;;;;;;8.18;0.63;;;3.70;99.90;;;;;;5424260;26;19998;-79
2024/04/21 02:49:32;;;;;;;4.22;0.50;;;3.70;99.90;;;;;;5418945;26;20020;-78
2024/04/21 02:51:58;;;;;;;6.90;1.05;;;3.80;99.90;;;;;;5413760;26;20005;-80
2024/04/21 02:54:26;;;;;;;8.57;0.80;;;3.90;99.90;;;;;;5389642;26;21529;-79
2024/04/21 02:56:53;;;;;;;5.75;0.77;;;3.90;99.90;;;;;;5389732;26;20013;-79
2024/04/21 02:59:19;;;;;;;4.88;0.40;;;4.00;99.90;;;;;;5390402;26;20006;-80
2024/04/21 03:01:46;;;;;;;10.85;1.10;;;4.00;99.90;;;;;;5367891;26;20005;-80
2024/04/21 03:04:15;;;;;;;7.28;0.73;;;4.00;99.90;;;;;;5432412;26;20002;-81
2024/04/21 03:06:45;;;;;;;9.02;1.25;;;3.90;99.90;;;;;;5405218;26;20524;-80
2024/04/21 03:09:12;;;;;;;8.38;0.65;;;3.90;99.90;;;;;;5393160;26;20028;-79
2024/04/21 03:11:39;;;;;;;13.85;1.02;;;3.90;99.90;;;;;;5419859;26;20526;-80
2024/04/21 03:14:06;;;;;;;10.68;1.30;;;3.90;99.90;;;;;;5451393;25;20635;-80
2024/04/21 03:16:32;;;;;;;10.90;1.00;;;3.90;99.90;;;;;;5390820;26;20014;-78
2024/04/21 03:19:01;;;;;;;8.70;0.98;;;3.90;99.90;;;;;;5388350;26;20009;-78
2024/04/21 03:21:28;;;;;;;10.00;1.23;;;3.90;99.90;;;;;;5428825;26;20010;-79
2024/04/21 03:23:55;;;;;;;8.45;1.33;;;3.90;99.90;;;;;;5405685;26;20012;-78
2024/04/21 03:26:23;;;;;;;9.52;0.90;;;3.90;99.90;;;;;;5427433;26;21791;-80
2024/04/21 03:28:49;;;;;;;7.50;0.90;;;3.90;99.90;;;;;;5357590;26;20006;-80
2024/04/21 03:31:16;;;;;;;8.55;1.58;;;3.90;99.90;;;;;;5390157;26;20007;-79
2024/04/21 03:33:42;;;;;;;11.98;1.17;;;3.90;99.90;;;;;;5418461;26;20364;-79
2024/04/21 03:36:10;;;;;;;7.25;0.60;;;3.90;99.90;;;;;;5419323;26;22008;-78
2024/04/21 03:38:37;;;;;;;5.97;0.65;;;3.80;99.90;;;;;;5417413;26;20472;-78
2024/04/21 03:41:07;;;;;;;8.63;0.60;;;3.80;99.90;;;;;;5433664;26;20006;-78
2024/04/21 03:43:33;;;;;;;7.32;0.50;;;3.80;99.90;;;;;;5436880;26;20024;-78
2024/04/21 03:46:00;;;;;;;6.47;0.70;;;3.80;99.90;;;;;;5428416;26;20903;-79
2024/04/21 03:48:26;;;;;;;8.80;0.75;;;3.80;99.90;;;;;;5416241;26;20011;-79
2024/04/21 03:50:52;;;;;;;7.80;0.75;;;3.80;99.90;;;;;;5419096;26;20014;-78
2024/04/21 03:53:21;;;;;;;2.45;0.47;;;3.90;99.90;;;;;;5417283;26;20009;-80
2024/04/21 03:55:47;;;;;;;5.85;0.82;;;3.90;99.90;;;;;;5388935;26;20017;-79
2024/04/21 03:58:14;;;;;;;4.85;1.23;;;3.90;99.90;;;;;;5409641;26;20002;-79
2024/04/21 04:00:40;;;;;;;2.70;0.30;;;3.90;99.90;;;;;;5431585;26;20021;-79
2024/04/21 04:03:07;;;;;;;9.32;0.60;;;3.90;99.90;;;;;;5404005;26;20020;-79
2024/04/21 04:05:33;;;;;;;1.80;0.20;;;4.00;99.90;;;;;;5428901;26;20005;-79
2024/04/21 04:08:00;;;;;;;2.22;0.43;;;4.00;99.90;;;;;;5386606;26;20010;-78
2024/04/21 04:10:26;;;;;;;2.53;0.68;;;4.00;99.90;;;;;;5386550;26;20006;-79
2024/04/21 04:12:52;;;;;;;4.55;0.35;;;4.00;99.90;;;;;;5388308;26;20009;-78
2024/04/21 04:15:19;;;;;;;3.70;0.40;;;4.00;99.90;;;;;;5390171;26;20338;-78
2024/04/21 04:17:45;;;;;;;3.47;0.30;;;4.00;99.90;;;;;;5423551;26;20006;-78
2024/04/21 04:20:12;;;;;;;2.80;0.17;;;4.10;99.90;;;;;;5432692;26;20004;-78
2024/04/21 04:22:39;;;;;;;3.00;0.30;;;4.00;99.90;;;;;;5436876;26;20002;-80
2024/04/21 04:25:05;;;;;;;1.30;0.30;;;4.00;99.90;;;;;;5396952;26;20012;-79
2024/04/21 04:27:32;;;;;;;4.32;0.40;;;4.00;99.90;;;;;;5385262;26;20654;-79
2024/04/21 04:29:59;;;;;;;1.00;0.30;;;4.00;99.90;;;;;;5387413;26;20475;-78
2024/04/21 04:32:29;;;;;;;5.00;1.10;;;4.00;99.90;;;;;;5385305;26;20005;-77
2024/04/21 04:34:55;;;;;;;2.08;0.20;;;4.10;99.90;;;;;;5417285;26;20002;-78
2024/04/21 04:37:22;;;;;;;2.10;0.30;;;4.10;99.90;;;;;;5416837;26;20006;-79
2024/04/21 04:39:48;;;;;;;1.52;0.20;;;4.10;99.90;;;;;;5432895;26;20430;-78
2024/04/21 04:42:15;;;;;;;1.77;0.22;;;4.10;99.90;;;;;;5401097;26;20017;-78
2024/04/21 04:44:41;;;;;;;2.35;0.20;;;4.10;99.90;;;;;;5388331;26;20063;-77
2024/04/21 04:47:07;;;;;;;1.48;0.20;;;4.10;99.90;;;;;;5356398;26;20007;-78
2024/04/21 04:49:34;;;;;;;5.97;0.40;;;4.10;99.90;;;;;;5420771;26;20020;-78
2024/04/21 04:52:00;;;;;;;3.92;0.30;;;4.10;99.90;;;;;;5389317;26;20416;-78
2024/04/21 04:54:26;;;;;;;1.13;0.20;;;4.10;99.90;;;;;;5443741;25;21299;-78
2024/04/21 04:56:53;;;;;;;3.10;0.30;;;4.20;99.90;;;;;;5427678;26;20426;-78
2024/04/21 04:59:21;;;;;;;1.27;0.20;;;4.20;99.90;;;;;;5403571;26;20004;-78
2024/04/21 05:01:47;;;;;;;1.70;0.20;;;4.20;99.90;;;;;;5438033;26;20480;-78
2024/04/21 05:04:14;;;;;;;2.40;0.20;;;4.30;99.90;;;;;;5422427;26;20347;-78
2024/04/21 05:06:40;;;;;;;2.72;0.30;;;4.30;99.90;;;;;;5419864;26;20010;-77
2024/04/21 05:09:06;;;;;;;4.95;0.40;;;4.30;99.90;;;;;;5419055;26;20521;-79
2024/04/21 05:11:33;;;;;;;4.30;0.57;;;4.20;99.90;;;;;;5417443;26;22663;-78
2024/04/21 05:13:59;;;;;;;4.93;0.40;;;4.20;99.90;;;;;;5388366;26;20012;-79
2024/04/21 05:16:25;;;;;;;2.67;0.52;;;4.10;99.90;;;;;;5391276;26;20010;-77
2024/04/21 05:18:52;;;;;;;5.35;0.50;;;4.10;99.90;;;;;;5434457;26;20970;-78
2024/04/21 05:21:18;;;;;;;2.90;0.30;;;4.10;99.90;;;;;;5429293;26;20006;-78
2024/04/21 05:23:45;;;;;;;3.65;0.80;;;4.20;99.90;;;;;;5417633;26;20002;-78
2024/04/21 05:26:11;;;;;;;2.67;0.60;;;4.30;99.90;;;;;;5418989;26;19998;-78
2024/04/21 05:28:38;;;;;;;2.15;0.30;;;4.30;99.90;;;;;;5416548;26;22674;-78
2024/04/21 05:31:04;;;;;;;3.58;0.43;;;4.30;99.90;;;;;;5390193;26;20013;-78
2024/04/21 05:33:31;;;;;;;3.30;0.45;;;4.30;99.90;;;;;;5384245;26;19998;-77
2024/04/21 05:35:57;;;;;;;4.45;0.55;;;4.30;99.90;;;;;;5427564;26;20017;-78
2024/04/21 05:38:24;;;;;;;3.33;0.57;;;4.40;99.90;;;;;;5427873;26;20467;-78
2024/04/21 05:40:50;;;;;;;4.85;0.93;;;4.50;99.90;;;;;;5367352;26;20037;-77
2024/04/21 05:43:16;;;;;;;8.13;0.82;;;4.50;99.90;;;;;;5415998;26;20002;-76
2024/04/21 05:45:42;;;;;;;1.55;0.40;;;4.60;99.90;;;;;;5416019;26;20021;-77
2024/04/21 05:48:09;;;;;;;6.90;0.85;;;4.70;99.90;;;;;;5392040;26;20032;-77
2024/04/21 05:50:35;;;;;;;6.05;1.02;;;4.70;99.90;;;;;;5392909;26;20017;-77
2024/04/21 05:53:02;;;;;;;4.65;0.65;;;4.80;99.90;;;;;;5396883;26;20006;-78
2024/04/21 05:55:28;;;;;;;9.45;0.73;;;4.80;99.90;;;;;;5439614;26;20380;-76
2024/04/21 05:57:54;;;;;;;4.20;0.50;;;4.80;99.90;;;;;;5434705;26;20016;-77
2024/04/21 06:00:21;;;;;;;6.40;0.60;;;4.80;99.90;;;;;;5425813;26;20352;-77
2024/04/21 06:02:47;;;;;;;3.53;0.50;;;4.80;99.90;;;;;;5366370;26;20006;-77
2024/04/21 06:05:14;;;;;;;7.15;0.60;;;4.80;99.90;;;;;;5391022;26;20040;-78
2024/04/21 06:07:40;;;;;;;6.38;0.60;;;4.80;99.90;;;;;;5390005;26;20381;-78
2024/04/21 06:10:07;;;;;;;1.80;0.45;;;4.80;99.90;;;;;;5389965;26;20006;-78
2024/04/21 06:12:33;;;;;;;3.50;0.68;;;4.90;99.90;;;;;;5434625;26;20002;-79
2024/04/21 06:14:59;;;;;;;5.45;0.70;;;4.90;99.90;;;;;;5435970;26;19998;-78
2024/04/21 06:17:25;;;;;;;3.15;0.47;;;4.90;99.90;;;;;;5424381;26;20433;-77
2024/04/21 06:19:52;;;;;;;6.72;0.60;;;4.90;99.90;;;;;;5423864;26;20004;-78
2024/04/21 06:22:18;;;;;;;4.60;0.57;;;4.90;99.90;;;;;;5423752;26;20010;-77
2024/04/21 06:24:47;;;;;;;2.95;0.60;;;5.00;99.90;;;;;;5426085;26;20020;-77
2024/04/21 06:27:13;;;;;;;4.63;0.70;;;5.00;99.90;;;;;;5397022;26;20006;-77
2024/04/21 06:29:39;;;;;;;3.63;0.50;;;5.10;99.90;;;;;;5435004;26;20010;-77
2024/04/21 06:32:06;;;;;;;4.43;0.45;;;5.20;99.90;;;;;;5437040;26;21051;-77
2024/04/21 06:34:32;;;;;;;5.10;0.73;;;5.50;99.90;;;;;;5426139;26;20013;-77
2024/04/21 06:36:59;;;;;;;6.13;0.82;;;5.70;99.90;;;;;;5421927;26;20490;-77
2024/04/21 06:39:25;;;;;;;4.82;0.60;;;5.90;99.90;;;;;;5420156;26;20020;-77
2024/04/21 06:41:52;;;;;;;2.97;0.52;;;6.10;99.90;;;;;;5423397;26;20002;-77
2024/04/21 06:44:18;;;;;;;3.50;0.60;;;6.20;99.90;;;;;;5424078;26;20006;-77
2024/04/21 06:46:45;;;;;;;7.28;0.95;;;6.30;99.90;;;;;;5436203;26;20018;-78
2024/04/21 06:49:11;;;;;;;4.35;0.70;;;6.60;99.90;;;;;;5401034;26;20005;-77
2024/04/21 06:51:37;;;;;;;3.60;0.40;;;6.60;99.90;;;;;;5394491;26;20117;-76
2024/04/21 06:54:04;;;;;;;3.08;0.60;;;6.50;99.90;;;;;;5388864;26;20028;-77
2024/04/21 06:56:30;;;;;;;4.13;0.90;;;6.50;99.90;;;;;;5392282;26;19994;-77
2024/04/21 06:58:56;;;;;;;7.53;1.20;;;6.40;99.90;;;;;;5423382;26;20100;-77
2024/04/21 07:01:22;;;;;;;5.63;0.82;;;6.20;99.90;;;;;;5437984;26;20005;-77
2024/04/21 07:03:49;;;;;;;11.38;1.08;;;6.10;99.90;;;;;;5439075;26;20360;-77
2024/04/21 07:06:15;;;;;;;9.38;1.08;;;5.90;99.90;;;;;;5365441;26;20006;-77
2024/04/21 07:08:41;;;;;;;6.70;0.90;;;5.90;99.90;;;;;;5384172;26;20017;-77
2024/04/21 07:11:08;;;;;;;5.28;0.93;;;6.00;99.90;;;;;;5417779;26;20015;-78
2024/04/21 07:13:35;;;;;;;11.93;2.33;;;5.90;99.90;;;;;;5392337;26;20013;-76
2024/04/21 07:16:02;;;;;;;13.40;2.47;;;5.90;99.90;;;;;;5417085;26;20491;-76
2024/04/21 07:18:28;;;;;;;17.05;3.08;;;5.90;99.90;;;;;;5431920;26;20002;-76
2024/04/21 07:20:55;;;;;;;14.02;3.22;;;5.90;99.90;;;;;;5432393;26;21161;-76
2024/04/21 07:23:21;;;;;;;6.68;2.33;;;6.00;99.90;;;;;;5419060;26;20445;-77
2024/04/21 07:25:48;;;;;;;12.55;3.00;;;6.10;99.90;;;;;;5416694;26;20582;-76
2024/04/21 07:28:14;;;;;;;11.60;2.17;;;6.30;99.90;;;;;;5415380;26;20013;-77
2024/04/21 07:30:42;;;;;;;7.18;2.20;;;6.40;99.90;;;;;;5416268;26;20017;-76
2024/04/21 07:33:08;;;;;;;12.95;2.97;;;6.50;99.90;;;;;;5391991;26;20003;-77
2024/04/21 07:35:34;;;;;;;9.98;2.80;;;6.80;99.90;;;;;;5402481;26;20475;-77
2024/04/21 07:38:01;;;;;;;10.23;3.60;;;6.90;99.90;;;;;;5397329;26;20012;-76
2024/04/21 07:40:27;;;;;;;9.65;3.28;;;7.10;99.90;;;;;;5416500;26;21458;-77
2024/04/21 07:42:53;;;;;;;10.43;4.22;;;7.10;99.90;;;;;;5386506;26;20002;-77
2024/04/21 07:45:20;;;;;;;14.63;4.55;;;7.30;99.90;;;;;;5388696;26;19998;-77
2024/04/21 07:47:46;;;;;;;13.40;5.28;;;7.60;99.90;;;;;;5384304;26;20009;-77
2024/04/21 07:50:12;;;;;;;14.68;5.43;;;7.80;99.90;;;;;;5424330;26;20006;-77
2024/04/21 07:52:39;;;;;;;9.52;4.00;;;8.20;99.90;;;;;;5437087;26;20498;-76
2024/04/21 07:55:05;;;;;;;10.30;2.83;;;8.40;99.90;;;;;;5433423;26;20013;-77
2024/04/21 07:57:32;;;;;;;10.00;1.77;;;8.60;99.90;;;;;;5385292;26;21241;-77
2024/04/21 07:59:58;;;;;;;7.60;1.80;;;8.60;99.90;;;;;;5419110;26;20010;-77
2024/04/21 08:02:25;;;;;;;8.95;1.58;;;8.40;99.90;;;;;;5390360;26;21212;-76
2024/04/21 08:04:51;;;;;;;8.43;1.92;;;8.10;99.90;;;;;;5416199;26;20017;-76
2024/04/21 08:07:17;;;;;;;11.73;3.35;;;7.80;99.90;;;;;;5429775;26;20020;-75
2024/04/21 08:09:44;;;;;;;12.23;2.58;;;7.60;99.90;;;;;;5434493;26;20603;-76
2024/04/21 08:12:10;;;;;;;9.52;2.38;;;7.50;99.90;;;;;;5426799;26;20017;-76
2024/04/21 08:14:37;;;;;;;9.95;2.47;;;7.50;99.90;;;;;;5391766;26;20026;-76
2024/04/21 08:17:04;;;;;;;9.75;3.20;;;7.70;99.90;;;;;;5416914;26;20010;-79
2024/04/21 08:19:30;;;;;;;9.27;1.10;;;7.80;99.90;;;;;;5386277;26;20899;-77
2024/04/21 08:21:57;;;;;;;8.40;1.45;;;7.90;99.90;;;;;;5417524;26;20641;-77
2024/04/21 08:24:23;;;;;;;8.63;1.23;;;7.80;99.90;;;;;;5425115;26;20006;-76
2024/04/21 08:26:53;;;;;;;7.60;1.00;;;7.70;99.90;;;;;;5405949;26;20010;-78
2024/04/21 08:29:22;;;;;;;6.63;1.15;;;7.80;99.90;;;;;;5420246;26;20010;-77
2024/04/21 08:31:52;;;;;;;6.90;1.20;;;7.90;99.90;;;;;;5389751;26;20017;-78
2024/04/21 08:34:20;;;;;;;8.35;1.02;;;8.10;99.90;;;;;;5360315;26;20001;-78
2024/04/21 08:36:46;;;;;;;7.63;0.90;;;8.10;99.90;;;;;;5443880;25;20002;-78
2024/04/21 08:39:13;;;;;;;6.82;0.90;;;8.10;99.90;;;;;;5457241;25;20430;-77
2024/04/21 08:41:40;;;;;;;6.88;1.23;;;8.10;99.90;;;;;;5407499;26;20006;-77
2024/04/21 08:44:14;;;;;;;8.25;1.38;;;8.20;99.90;;;;;;5397337;26;20406;-78
2024/04/21 08:46:41;;;;;;;6.55;0.80;;;8.20;99.90;;;;;;5417129;26;21260;-79
2024/04/21 08:49:07;;;;;;;9.93;1.95;;;8.20;99.90;;;;;;5388149;26;20673;-79
2024/04/21 08:51:35;;;;;;;5.28;1.02;;;8.30;99.90;;;;;;5414372;26;20006;-79
2024/04/21 08:54:02;;;;;;;6.68;1.20;;;8.60;99.90;;;;;;5415302;26;20007;-77
2024/04/21 08:56:32;;;;;;;8.32;1.40;;;8.70;99.90;;;;;;5369060;26;20014;-78
2024/04/21 08:59:00;;;;;;;8.40;1.35;;;8.60;99.90;;;;;;5428824;26;19998;-76
2024/04/21 09:01:27;;;;;;;3.78;0.90;;;8.50;99.90;;;;;;5416483;26;20048;-77
2024/04/21 09:03:53;;;;;;;6.00;1.00;;;8.30;99.90;;;;;;5385489;26;20225;-77
2024/04/21 09:06:26;;;;;;;6.75;1.02;;;8.20;99.90;;;;;;5415607;26;20461;-76
2024/04/21 09:08:53;;;;;;;;;;;8.20;99.90;;;;;;5356285;26;20010;-78
2024/04/21 09:11:19;;;;;;;6.47;1.10;;;8.30;99.90;;;;;;5449348;25;19945;-77
2024/04/21 09:13:46;;;;;;;5.40;0.70;;;8.40;99.90;;;;;;5402637;26;20006;-78
2024/04/21 09:16:12;;;;;;;4.10;0.90;;;8.40;99.90;;;;;;5424826;26;20012;-79
2024/04/21 09:18:38;;;;;;;6.68;1.05;;;8.50;99.90;;;;;;5414562;26;20009;-77
2024/04/21 09:21:05;;;;;;;5.40;0.98;;;8.30;99.90;;;;;;5387412;26;20025;-75
2024/04/21 09:23:34;;;;;;;4.00;1.25;;;8.20;99.90;;;;;;5414830;26;19995;-77
2024/04/21 09:26:01;;;;;;;5.68;1.17;;;8.20;99.90;;;;;;5467303;25;20002;-78
2024/04/21 09:28:27;;;;;;;4.68;0.90;;;8.20;99.90;;;;;;5385563;26;20006;-77
2024/04/21 09:30:53;;;;;;;3.75;0.65;;;8.40;99.90;;;;;;5423894;26;20762;-85
2024/04/21 09:33:21;;;;;;;6.18;1.13;;;8.50;99.90;;;;;;5398830;26;19998;-79
2024/04/21 09:35:47;;;;;;;5.13;1.27;;;8.70;99.90;;;;;;5412617;26;20010;-79
2024/04/21 09:38:13;;;;;;;3.20;1.08;;;8.90;99.90;;;;;;5411634;26;20005;-78
2024/04/21 09:40:41;;;;;;;7.43;1.58;;;9.00;99.90;;;;;;5415269;26;20014;-78
2024/04/21 09:43:11;;;;;;;2.85;1.08;;;9.10;99.90;;;;;;5354447;26;20012;-77
2024/04/21 09:45:37;;;;;;;4.43;1.05;;;9.20;99.90;;;;;;5414348;26;20006;-77
2024/04/21 09:48:05;;;;;;;3.58;1.50;;;9.30;99.90;;;;;;5429792;26;20010;-77
2024/04/21 09:50:31;;;;;;;3.03;1.00;;;9.40;99.90;;;;;;5456561;25;20583;-79
2024/04/21 09:53:00;;;;;;;3.40;1.00;;;9.40;99.90;;;;;;5423876;26;20017;-78
2024/04/21 09:55:31;;;;;;;2.20;0.65;;;9.50;99.90;;;;;;5358068;26;20005;-78
2024/04/21 09:58:00;;;;;;;3.60;1.08;;;9.80;99.90;;;;;;5356052;26;20027;-79
2024/04/21 10:00:31;;;;;;;3.97;1.77;;;10.20;99.90;;;;;;5385071;26;20001;-78
2024/04/21 10:03:03;;;;;;;3.00;1.17;;;10.40;99.90;;;;;;5360097;26;20024;-80
2024/04/21 10:05:31;;;;;;;2.83;1.13;;;10.60;99.90;;;;;;5420575;26;20367;-79
2024/04/21 10:08:01;;;;;;;2.67;1.00;;;10.80;99.90;;;;;;5398615;26;20904;-78
2024/04/21 10:10:31;;;;;;;3.17;1.23;;;11.00;99.90;;;;;;5455598;25;20020;-78
2024/04/21 10:12:58;;;;;;;3.05;1.10;;;11.10;99.90;;;;;;5356560;26;20002;-78
2024/04/21 10:15:25;;;;;;;2.08;0.85;;;11.40;99.90;;;;;;5386234;26;20014;-78
2024/04/21 10:18:01;;;;;;;3.60;1.05;;;11.60;99.90;;;;;;5385511;26;20005;-80
2024/04/21 10:20:33;;;;;;;2.47;1.05;;;11.90;99.90;;;;;;5410122;26;20006;-79
2024/04/21 10:23:01;;;;;;;3.53;0.90;;;12.00;99.90;;;;;;5373231;26;20006;-78
2024/04/21 10:25:35;;;;;;;2.15;1.38;;;11.90;99.90;;;;;;5485350;25;20004;-78
2024/04/21 10:28:08;;;;;;;2.90;1.00;;;12.00;99.90;;;;;;5417873;26;21846;-79
2024/04/21 10:30:36;;;;;;;3.83;1.10;;;12.00;99.90;;;;;;5414685;26;20002;-79
2024/04/21 10:33:09;;;;;;;1.48;0.80;;;12.00;99.90;;;;;;5364568;26;21463;-79
2024/04/21 10:35:38;;;;;;;4.05;1.10;;;12.30;99.90;;;;;;5356566;26;20009;-78
2024/04/21 10:38:07;;;;;;;3.65;1.00;;;12.50;99.90;;;;;;5425523;26;20471;-79
2024/04/21 10:40:55;;;;;;;3.00;0.80;;;12.80;99.90;;;;;;5377594;26;20555;-79
2024/04/21 10:43:27;;;;;;;1.20;0.60;;;13.40;99.90;;;;;;5417204;26;20006;-78
2024/04/21 10:46:00;;;;;;;3.38;1.60;;;13.80;99.90;;;;;;5408034;26;20783;-79
2024/04/21 10:48:26;;;;;;;4.97;2.20;;;14.40;99.90;;;;;;5382032;26;20005;-80
2024/04/21 10:50:53;;;;;;;3.78;1.63;;;14.70;99.90;;;;;;5469262;25;22928;-77
2024/04/21 10:53:20;;;;;;;1.50;0.90;;;14.80;99.90;;;;;;5420108;26;20006;-77
2024/04/21 10:55:51;;;;;;;1.98;1.02;;;14.80;99.90;;;;;;5400879;26;19999;-78
2024/04/21 10:58:19;;;;;;;1.40;0.70;;;14.90;99.90;;;;;;5402618;26;20350;-81
2024/04/21 11:00:46;;;;;;;1.67;0.70;;;15.20;99.90;;;;;;5421551;26;20002;-78
2024/04/21 11:03:12;;;;;;;1.65;0.73;;;15.30;99.90;;;;;;5421785;26;20006;-77
2024/04/21 11:06:00;;;;;;;1.67;0.57;;;15.00;99.30;;;;;;5390812;26;20484;-76
2024/04/21 11:08:30;;;;;;;1.48;0.70;;;14.50;99.80;;;;;;5361022;26;20005;-77
2024/04/21 11:10:57;;;;;;;2.83;0.57;;;13.90;99.90;;;;;;5366029;26;20006;-77
2024/04/21 11:13:23;;;;;;;1.77;0.50;;;13.90;99.90;;;;;;5403994;26;20016;-77
2024/04/21 11:15:50;;;;;;;1.88;0.60;;;14.40;99.30;;;;;;5371541;26;19998;-77
2024/04/21 11:18:17;;;;;;;1.17;0.50;;;15.00;98.70;;;;;;5414252;26;19995;-77
2024/04/21 11:20:44;;;;;;;1.52;0.40;;;15.70;99.30;;;;;;5390081;26;22127;-77
2024/04/21 11:23:16;;;;;;;1.02;0.50;;;16.50;98.10;;;;;;5417688;26;19994;-77
2024/04/21 11:25:48;;;;;;;1.20;0.60;;;17.10;97.30;;;;;;5389524;26;20461;-77
2024/04/21 11:28:16;;;;;;;0.85;0.52;;;17.80;95.80;;;;;;5458726;26;20002;-76
2024/04/21 11:30:43;;;;;;;1.20;0.60;;;18.20;95.10;;;;;;5380653;26;20341;-77
2024/04/21 11:33:10;;;;;;;1.60;0.75;;;17.90;93.20;;;;;;5430649;26;19998;-76
2024/04/21 11:35:40;;;;;;;2.40;0.60;;;17.10;91.50;;;;;;5475242;25;20563;-76
2024/04/21 11:38:07;;;;;;;1.63;0.50;;;16.60;92.30;;;;;;5390525;26;20690;-77
2024/04/21 11:40:39;;;;;;;1.52;0.70;;;16.70;93.20;;;;;;5391780;26;19999;-76
2024/04/21 11:43:07;;;;;;;;;;;16.80;92.40;;;;;;5370977;26;19994;-77
2024/04/21 11:45:34;;;;;;;1.33;0.60;;;17.10;92.50;;;;;;5439823;26;19924;-77
2024/04/21 11:48:01;;;;;;;1.60;0.50;;;17.50;91.60;;;;;;5389711;26;21900;-76
2024/04/21 11:50:27;;;;;;;2.05;0.52;;;17.90;89.00;;;;;;5393590;26;19998;-76
2024/04/21 11:52:54;;;;;;;1.65;0.50;;;18.00;86.30;;;;;;5422641;26;20007;-76
2024/04/21 11:55:21;;;;;;;1.30;0.50;;;17.30;86.70;;;;;;5423072;26;20484;-76
2024/04/21 11:57:47;;;;;;;1.58;0.50;;;16.40;87.70;;;;;;5439038;26;20340;-76
2024/04/21 12:00:14;;;;;;;1.15;0.47;;;15.60;89.30;;;;;;5425781;26;20017;-77
2024/04/21 12:02:40;;;;;;;1.65;0.40;;;14.90;90.60;;;;;;5418410;26;20009;-76
2024/04/21 12:05:06;;;;;;;1.20;0.32;;;14.60;91.40;;;;;;5421796;26;20017;-76
2024/04/21 12:07:33;;;;;;;1.90;0.57;;;15.40;92.40;;;;;;5425261;26;20357;-75
2024/04/21 12:09:59;;;;;;;0.60;0.40;;;16.70;92.30;;;;;;5409465;26;19998;-75
2024/04/21 12:12:26;;;;;;;2.53;0.50;;;17.90;91.20;;;;;;5431456;26;20010;-77
2024/04/21 12:14:52;;;;;;;0.80;0.38;;;19.00;86.60;;;;;;5423806;26;20024;-77
2024/04/21 12:17:21;;;;;;;1.33;0.40;;;19.40;84.60;;;;;;5442847;25;20002;-77
2024/04/21 12:19:49;;;;;;;1.15;0.40;;;19.30;80.90;;;;;;5422384;26;20020;-75
2024/04/21 12:22:16;;;;;;;1.88;0.55;;;18.80;81.00;;;;;;5439206;26;20481;-77
2024/04/21 12:24:42;;;;;;;1.27;0.60;;;18.00;80.20;;;;;;5431004;26;20006;-76
2024/04/21 12:27:08;;;;;;;1.52;0.75;;;17.20;81.10;;;;;;5365437;26;20002;-77
2024/04/21 12:29:35;;;;;;;4.15;1.70;;;16.90;82.30;;;;;;5389386;26;20013;-77
2024/04/21 12:32:01;;;;;;;3.22;0.98;;;16.90;83.30;;;;;;5362792;26;19998;-75
2024/04/21 12:34:27;;;;;;;2.53;0.52;;;16.80;83.50;;;;;;5375504;26;23268;-76
2024/04/21 12:36:54;;;;;;;2.38;0.70;;;16.40;83.80;;;;;;5407554;26;20010;-76
2024/04/21 12:39:20;;;;;;;3.33;0.60;;;16.00;84.00;;;;;;5420619;26;20006;-76
2024/04/21 12:41:46;;;;;;;7.35;1.40;;;15.70;83.70;;;;;;5421656;26;20021;-77
2024/04/21 12:44:13;;;;;;;18.92;8.25;;;15.70;85.30;;;;;;5390256;26;20002;-76
2024/04/21 12:46:40;;;;;;;3.38;1.40;;;15.90;86.20;;;;;;5422912;26;20006;-76
2024/04/21 12:49:06;;;;;;;3.25;1.30;;;15.90;85.90;;;;;;5428043;26;19994;-75
2024/04/21 12:51:33;;;;;;;2.03;0.65;;;15.60;84.80;;;;;;5376425;26;20600;-76
2024/04/21 12:53:59;;;;;;;2.97;0.95;;;15.20;86.30;;;;;;5400792;26;20016;-78